sensor_id;sensor_type;location;lat;lon;timestamp;P1;durP1;ratioP1;P2;durP2;ratioP2
24467;SDS011;12634;50.852;5.676;2023-11-21T11:40:02;24.70;;;12.95;;
24467;SDS011;12634;50.852;5.676;2023-11-21T11:42:33;21.83;;;12.30;;
24467;SDS011;12634;50.852;5.676;2023-11-21T11:45:00;24.00;;;13.43;;
24467;SDS011;12634;50.852;5.676;2023-11-21T11:47:30;23.80;;;13.10;;
24467;SDS011;12634;50.852;5.676;2023-11-21T11:50:03;22.00;;;12.73;;
24467;SDS011;12634;50.852;5.676;2023-11-21T11:52:37;26.15;;;14.77;;
24467;SDS011;12634;50.852;5.676;2023-11-21T11:55:08;25.58;;;13.88;;
24467;SDS011;12634;50.852;5.676;2023-11-21T11:57:36;26.33;;;13.82;;
24467;SDS011;12634;50.852;5.676;2023-11-21T12:00:11;25.08;;;14.32;;
24467;SDS011;12634;50.852;5.676;2023-11-21T12:02:45;26.20;;;14.45;;
24467;SDS011;12634;50.852;5.676;2023-11-21T12:05:13;22.48;;;12.73;;
24467;SDS011;12634;50.852;5.676;2023-11-21T12:07:46;28.15;;;14.57;;
24467;SDS011;12634;50.852;5.676;2023-11-21T12:10:18;24.83;;;14.02;;
24467;SDS011;12634;50.852;5.676;2023-11-21T12:12:47;26.77;;;14.95;;
24467;SDS011;12634;50.852;5.676;2023-11-21T12:15:17;25.98;;;14.20;;
24467;SDS011;12634;50.852;5.676;2023-11-21T12:17:45;28.42;;;14.93;;
24467;SDS011;12634;50.852;5.676;2023-11-21T12:20:13;22.40;;;13.60;;
24467;SDS011;12634;50.852;5.676;2023-11-21T12:22:43;27.67;;;14.50;;
24467;SDS011;12634;50.852;5.676;2023-11-21T12:25:12;28.52;;;14.23;;
24467;SDS011;12634;50.852;5.676;2023-11-21T12:27:46;26.48;;;14.30;;
24467;SDS011;12634;50.852;5.676;2023-11-21T12:30:14;19.67;;;12.25;;
24467;SDS011;12634;50.852;5.676;2023-11-21T12:32:44;24.30;;;14.63;;
24467;SDS011;12634;50.852;5.676;2023-11-21T12:35:14;28.02;;;14.75;;
24467;SDS011;12634;50.852;5.676;2023-11-21T12:37:43;25.63;;;14.75;;
24467;SDS011;12634;50.852;5.676;2023-11-21T12:40:12;23.95;;;14.38;;
24467;SDS011;12634;50.852;5.676;2023-11-21T12:42:40;22.48;;;13.98;;
24467;SDS011;12634;50.852;5.676;2023-11-21T12:47:56;26.60;;;15.07;;
24467;SDS011;12634;50.852;5.676;2023-11-21T12:50:26;29.45;;;15.55;;
24467;SDS011;12634;50.852;5.676;2023-11-21T12:52:58;22.75;;;12.82;;
24467;SDS011;12634;50.852;5.676;2023-11-21T12:55:29;23.33;;;15.23;;
24467;SDS011;12634;50.852;5.676;2023-11-21T12:57:57;26.25;;;14.02;;
24467;SDS011;12634;50.852;5.676;2023-11-21T13:00:35;25.17;;;14.27;;
24467;SDS011;12634;50.852;5.676;2023-11-21T13:03:04;24.73;;;14.00;;
24467;SDS011;12634;50.852;5.676;2023-11-21T13:05:33;23.92;;;14.52;;
24467;SDS011;12634;50.852;5.676;2023-11-21T13:08:05;24.65;;;14.15;;
24467;SDS011;12634;50.852;5.676;2023-11-21T13:10:35;26.92;;;14.60;;
24467;SDS011;12634;50.852;5.676;2023-11-21T13:13:04;25.10;;;14.02;;
24467;SDS011;12634;50.852;5.676;2023-11-21T13:15:36;24.73;;;14.80;;
24467;SDS011;12634;50.852;5.676;2023-11-21T13:18:06;31.63;;;16.35;;
24467;SDS011;12634;50.852;5.676;2023-11-21T13:20:36;25.38;;;15.27;;
24467;SDS011;12634;50.852;5.676;2023-11-21T13:23:07;24.05;;;14.80;;
24467;SDS011;12634;50.852;5.676;2023-11-21T13:25:37;23.63;;;14.20;;
24467;SDS011;12634;50.852;5.676;2023-11-21T13:28:06;21.60;;;13.30;;
24467;SDS011;12634;50.852;5.676;2023-11-21T13:30:36;22.52;;;11.45;;
24467;SDS011;12634;50.852;5.676;2023-11-21T13:33:05;18.77;;;11.80;;
24467;SDS011;12634;50.852;5.676;2023-11-21T13:35:34;16.20;;;10.57;;
24467;SDS011;12634;50.852;5.676;2023-11-21T13:38:07;19.80;;;11.05;;
24467;SDS011;12634;50.852;5.676;2023-11-21T13:40:36;15.85;;;11.15;;
24467;SDS011;12634;50.852;5.676;2023-11-21T13:43:08;17.10;;;9.95;;
24467;SDS011;12634;50.852;5.676;2023-11-21T13:45:37;16.02;;;8.82;;
24467;SDS011;12634;50.852;5.676;2023-11-21T13:48:05;12.77;;;8.02;;
24467;SDS011;12634;50.852;5.676;2023-11-21T13:50:35;13.90;;;8.85;;
24467;SDS011;12634;50.852;5.676;2023-11-21T13:53:01;11.98;;;8.63;;
24467;SDS011;12634;50.852;5.676;2023-11-21T13:55:35;12.00;;;8.00;;
24467;SDS011;12634;50.852;5.676;2023-11-21T13:58:04;13.15;;;8.75;;
24467;SDS011;12634;50.852;5.676;2023-11-21T14:00:35;10.88;;;7.30;;
24467;SDS011;12634;50.852;5.676;2023-11-21T14:03:11;12.52;;;7.97;;
24467;SDS011;12634;50.852;5.676;2023-11-21T14:05:45;11.57;;;8.23;;
24467;SDS011;12634;50.852;5.676;2023-11-21T14:08:16;11.80;;;7.43;;
24467;SDS011;12634;50.852;5.676;2023-11-21T14:10:46;12.30;;;8.13;;
24467;SDS011;12634;50.852;5.676;2023-11-21T14:13:16;10.70;;;7.60;;
24467;SDS011;12634;50.852;5.676;2023-11-21T14:15:48;12.98;;;8.02;;
24467;SDS011;12634;50.852;5.676;2023-11-21T14:18:20;10.25;;;7.28;;
24467;SDS011;12634;50.852;5.676;2023-11-21T14:20:55;10.30;;;7.78;;
24467;SDS011;12634;50.852;5.676;2023-11-21T14:23:22;9.90;;;7.82;;
24467;SDS011;12634;50.852;5.676;2023-11-21T14:25:50;13.00;;;8.98;;
24467;SDS011;12634;50.852;5.676;2023-11-21T14:28:17;12.23;;;8.80;;
24467;SDS011;12634;50.852;5.676;2023-11-21T14:30:45;12.23;;;8.88;;
24467;SDS011;12634;50.852;5.676;2023-11-21T14:33:13;16.55;;;10.10;;
24467;SDS011;12634;50.852;5.676;2023-11-21T14:35:45;13.48;;;9.32;;
24467;SDS011;12634;50.852;5.676;2023-11-21T14:38:12;13.85;;;10.05;;
24467;SDS011;12634;50.852;5.676;2023-11-21T14:40:40;14.65;;;10.55;;
24467;SDS011;12634;50.852;5.676;2023-11-21T14:43:07;13.85;;;10.38;;
24467;SDS011;12634;50.852;5.676;2023-11-21T14:45:34;14.35;;;10.00;;
24467;SDS011;12634;50.852;5.676;2023-11-21T14:48:01;14.25;;;9.85;;
24467;SDS011;12634;50.852;5.676;2023-11-21T14:50:40;13.85;;;9.45;;
24467;SDS011;12634;50.852;5.676;2023-11-21T14:53:43;14.82;;;10.18;;
24467;SDS011;12634;50.852;5.676;2023-11-21T14:56:19;17.25;;;11.15;;
24467;SDS011;12634;50.852;5.676;2023-11-21T14:58:52;17.13;;;11.60;;
24467;SDS011;12634;50.852;5.676;2023-11-21T15:01:19;16.98;;;11.18;;
24467;SDS011;12634;50.852;5.676;2023-11-21T15:03:59;17.20;;;11.88;;
24467;SDS011;12634;50.852;5.676;2023-11-21T15:06:25;17.83;;;11.98;;
24467;SDS011;12634;50.852;5.676;2023-11-21T15:08:57;18.83;;;12.35;;
24467;SDS011;12634;50.852;5.676;2023-11-21T15:11:38;17.85;;;12.18;;
24467;SDS011;12634;50.852;5.676;2023-11-21T15:14:06;24.85;;;13.73;;
24467;SDS011;12634;50.852;5.676;2023-11-21T15:16:34;21.55;;;13.70;;
24467;SDS011;12634;50.852;5.676;2023-11-21T15:19:05;23.30;;;14.70;;
24467;SDS011;12634;50.852;5.676;2023-11-21T15:21:32;19.33;;;12.68;;
24467;SDS011;12634;50.852;5.676;2023-11-21T15:24:01;18.55;;;12.27;;
24467;SDS011;12634;50.852;5.676;2023-11-21T15:26:28;20.35;;;12.95;;
24467;SDS011;12634;50.852;5.676;2023-11-21T15:28:57;21.23;;;13.80;;
24467;SDS011;12634;50.852;5.676;2023-11-21T15:31:25;21.13;;;13.00;;
24467;SDS011;12634;50.852;5.676;2023-11-21T15:33:52;19.75;;;13.60;;
24467;SDS011;12634;50.852;5.676;2023-11-21T15:36:24;18.45;;;12.40;;
24467;SDS011;12634;50.852;5.676;2023-11-21T15:38:51;18.55;;;12.85;;
24467;SDS011;12634;50.852;5.676;2023-11-21T15:41:21;21.52;;;13.23;;
24467;SDS011;12634;50.852;5.676;2023-11-21T15:43:48;18.58;;;11.70;;
24467;SDS011;12634;50.852;5.676;2023-11-21T15:46:17;18.35;;;12.65;;
24467;SDS011;12634;50.852;5.676;2023-11-21T15:48:44;19.40;;;12.48;;
24467;SDS011;12634;50.852;5.676;2023-11-21T15:51:15;20.70;;;13.35;;
24467;SDS011;12634;50.852;5.676;2023-11-21T15:53:44;18.10;;;12.05;;
24467;SDS011;12634;50.852;5.676;2023-11-21T15:56:11;19.02;;;12.15;;
24467;SDS011;12634;50.852;5.676;2023-11-21T15:58:40;19.95;;;12.35;;
24467;SDS011;12634;50.852;5.676;2023-11-21T16:01:08;18.90;;;12.25;;
24467;SDS011;12634;50.852;5.676;2023-11-21T16:03:38;20.15;;;12.07;;
24467;SDS011;12634;50.852;5.676;2023-11-21T16:06:05;20.05;;;12.75;;
24467;SDS011;12634;50.852;5.676;2023-11-21T16:08:35;16.35;;;11.77;;
24467;SDS011;12634;50.852;5.676;2023-11-21T16:11:04;18.63;;;12.73;;
24467;SDS011;12634;50.852;5.676;2023-11-21T16:13:31;19.30;;;12.43;;
24467;SDS011;12634;50.852;5.676;2023-11-21T16:16:01;18.77;;;12.43;;
24467;SDS011;12634;50.852;5.676;2023-11-21T16:18:30;21.30;;;11.70;;
24467;SDS011;12634;50.852;5.676;2023-11-21T16:20:57;17.75;;;12.25;;
24467;SDS011;12634;50.852;5.676;2023-11-21T16:23:25;21.45;;;13.15;;
24467;SDS011;12634;50.852;5.676;2023-11-21T16:25:52;18.67;;;12.27;;
24467;SDS011;12634;50.852;5.676;2023-11-21T16:28:21;15.80;;;11.27;;
24467;SDS011;12634;50.852;5.676;2023-11-21T16:30:50;16.63;;;11.50;;
24467;SDS011;12634;50.852;5.676;2023-11-21T16:33:19;15.10;;;10.85;;
24467;SDS011;12634;50.852;5.676;2023-11-21T16:35:46;14.75;;;10.23;;
24467;SDS011;12634;50.852;5.676;2023-11-21T16:38:13;17.05;;;11.88;;
24467;SDS011;12634;50.852;5.676;2023-11-21T16:40:42;14.88;;;11.25;;
24467;SDS011;12634;50.852;5.676;2023-11-21T16:43:11;17.40;;;11.90;;
24467;SDS011;12634;50.852;5.676;2023-11-21T16:45:38;17.02;;;11.95;;
24467;SDS011;12634;50.852;5.676;2023-11-21T16:48:05;14.48;;;11.48;;
24467;SDS011;12634;50.852;5.676;2023-11-21T16:50:35;16.08;;;11.68;;
24467;SDS011;12634;50.852;5.676;2023-11-21T16:53:02;18.15;;;12.43;;
24467;SDS011;12634;50.852;5.676;2023-11-21T16:55:30;16.23;;;11.88;;
24467;SDS011;12634;50.852;5.676;2023-11-21T16:57:57;16.77;;;13.20;;
24467;SDS011;12634;50.852;5.676;2023-11-21T17:00:24;18.48;;;13.20;;
24467;SDS011;12634;50.852;5.676;2023-11-21T17:02:51;17.60;;;14.13;;
24467;SDS011;12634;50.852;5.676;2023-11-21T17:05:18;18.20;;;14.20;;
24467;SDS011;12634;50.852;5.676;2023-11-21T17:07:47;22.25;;;14.65;;
24467;SDS011;12634;50.852;5.676;2023-11-21T17:10:14;17.63;;;13.60;;
24467;SDS011;12634;50.852;5.676;2023-11-21T17:12:42;20.17;;;14.30;;
24467;SDS011;12634;50.852;5.676;2023-11-21T17:15:09;16.63;;;14.13;;
24467;SDS011;12634;50.852;5.676;2023-11-21T17:17:37;18.48;;;13.38;;
24467;SDS011;12634;50.852;5.676;2023-11-21T17:20:05;16.40;;;13.20;;
24467;SDS011;12634;50.852;5.676;2023-11-21T17:22:34;18.38;;;13.65;;
24467;SDS011;12634;50.852;5.676;2023-11-21T17:25:03;18.05;;;13.85;;
24467;SDS011;12634;50.852;5.676;2023-11-21T17:27:31;18.15;;;13.02;;
24467;SDS011;12634;50.852;5.676;2023-11-21T17:29:58;19.20;;;13.90;;
24467;SDS011;12634;50.852;5.676;2023-11-21T17:32:25;17.73;;;14.27;;
24467;SDS011;12634;50.852;5.676;2023-11-21T17:34:54;18.50;;;14.82;;
24467;SDS011;12634;50.852;5.676;2023-11-21T17:37:22;19.65;;;14.45;;
24467;SDS011;12634;50.852;5.676;2023-11-21T17:39:49;21.08;;;14.63;;
24467;SDS011;12634;50.852;5.676;2023-11-21T17:42:18;20.48;;;14.82;;
24467;SDS011;12634;50.852;5.676;2023-11-21T17:44:45;19.42;;;14.57;;
24467;SDS011;12634;50.852;5.676;2023-11-21T17:47:13;19.20;;;14.15;;
24467;SDS011;12634;50.852;5.676;2023-11-21T17:49:40;21.67;;;15.48;;
24467;SDS011;12634;50.852;5.676;2023-11-21T17:52:07;20.92;;;15.48;;
24467;SDS011;12634;50.852;5.676;2023-11-21T17:54:35;18.50;;;14.35;;
24467;SDS011;12634;50.852;5.676;2023-11-21T17:57:05;18.80;;;12.88;;
24467;SDS011;12634;50.852;5.676;2023-11-21T17:59:34;20.42;;;14.38;;
24467;SDS011;12634;50.852;5.676;2023-11-21T18:02:04;19.33;;;14.13;;
24467;SDS011;12634;50.852;5.676;2023-11-21T18:04:32;18.13;;;13.95;;
24467;SDS011;12634;50.852;5.676;2023-11-21T18:07:00;19.83;;;14.35;;
24467;SDS011;12634;50.852;5.676;2023-11-21T18:09:29;18.83;;;13.48;;
24467;SDS011;12634;50.852;5.676;2023-11-21T18:11:56;18.77;;;14.35;;
24467;SDS011;12634;50.852;5.676;2023-11-21T18:14:23;19.35;;;13.60;;
24467;SDS011;12634;50.852;5.676;2023-11-21T18:16:52;19.85;;;12.98;;
24467;SDS011;12634;50.852;5.676;2023-11-21T18:19:21;18.75;;;13.00;;
24467;SDS011;12634;50.852;5.676;2023-11-21T18:21:48;18.30;;;13.30;;
24467;SDS011;12634;50.852;5.676;2023-11-21T18:24:15;18.73;;;13.15;;
24467;SDS011;12634;50.852;5.676;2023-11-21T18:26:42;17.10;;;12.02;;
24467;SDS011;12634;50.852;5.676;2023-11-21T18:29:09;15.70;;;11.68;;
24467;SDS011;12634;50.852;5.676;2023-11-21T18:31:39;16.27;;;12.35;;
24467;SDS011;12634;50.852;5.676;2023-11-21T18:34:08;18.08;;;11.55;;
24467;SDS011;12634;50.852;5.676;2023-11-21T18:36:36;17.30;;;12.10;;
24467;SDS011;12634;50.852;5.676;2023-11-21T18:39:03;17.10;;;12.10;;
24467;SDS011;12634;50.852;5.676;2023-11-21T18:41:33;19.58;;;12.57;;
24467;SDS011;12634;50.852;5.676;2023-11-21T18:44:00;18.73;;;12.75;;
24467;SDS011;12634;50.852;5.676;2023-11-21T18:46:27;18.25;;;12.65;;
24467;SDS011;12634;50.852;5.676;2023-11-21T18:48:54;17.20;;;12.43;;
24467;SDS011;12634;50.852;5.676;2023-11-21T18:51:23;18.13;;;12.18;;
24467;SDS011;12634;50.852;5.676;2023-11-21T18:53:50;18.80;;;12.70;;
24467;SDS011;12634;50.852;5.676;2023-11-21T18:56:20;16.25;;;11.85;;
24467;SDS011;12634;50.852;5.676;2023-11-21T18:58:49;17.67;;;12.65;;
24467;SDS011;12634;50.852;5.676;2023-11-21T19:01:23;16.88;;;11.93;;
24467;SDS011;12634;50.852;5.676;2023-11-21T19:03:52;17.48;;;12.20;;
24467;SDS011;12634;50.852;5.676;2023-11-21T19:06:20;17.77;;;13.10;;
24467;SDS011;12634;50.852;5.676;2023-11-21T19:08:48;17.55;;;12.73;;
24467;SDS011;12634;50.852;5.676;2023-11-21T19:11:16;19.13;;;11.75;;
24467;SDS011;12634;50.852;5.676;2023-11-21T19:13:44;14.43;;;10.15;;
24467;SDS011;12634;50.852;5.676;2023-11-21T19:16:11;14.50;;;10.13;;
24467;SDS011;12634;50.852;5.676;2023-11-21T19:18:40;10.85;;;8.38;;
24467;SDS011;12634;50.852;5.676;2023-11-21T19:21:11;13.30;;;8.40;;
24467;SDS011;12634;50.852;5.676;2023-11-21T19:23:41;11.20;;;8.45;;
24467;SDS011;12634;50.852;5.676;2023-11-21T19:26:10;11.73;;;9.57;;
24467;SDS011;12634;50.852;5.676;2023-11-21T19:28:39;12.05;;;9.38;;
24467;SDS011;12634;50.852;5.676;2023-11-21T19:31:14;10.68;;;8.88;;
24467;SDS011;12634;50.852;5.676;2023-11-21T19:33:41;13.25;;;10.68;;
24467;SDS011;12634;50.852;5.676;2023-11-21T19:36:09;13.93;;;10.50;;
24467;SDS011;12634;50.852;5.676;2023-11-21T19:38:36;14.90;;;10.88;;
24467;SDS011;12634;50.852;5.676;2023-11-21T19:41:05;14.43;;;11.35;;
24467;SDS011;12634;50.852;5.676;2023-11-21T19:43:41;12.75;;;10.48;;
24467;SDS011;12634;50.852;5.676;2023-11-21T19:46:09;12.35;;;10.65;;
24467;SDS011;12634;50.852;5.676;2023-11-21T19:48:36;15.85;;;11.35;;
24467;SDS011;12634;50.852;5.676;2023-11-21T19:51:05;13.68;;;11.93;;
24467;SDS011;12634;50.852;5.676;2023-11-21T19:53:32;15.10;;;12.43;;
24467;SDS011;12634;50.852;5.676;2023-11-21T19:56:02;16.55;;;11.93;;
24467;SDS011;12634;50.852;5.676;2023-11-21T19:58:31;14.65;;;10.90;;
24467;SDS011;12634;50.852;5.676;2023-11-21T20:00:58;16.27;;;11.48;;
24467;SDS011;12634;50.852;5.676;2023-11-21T20:03:25;13.18;;;11.38;;
24467;SDS011;12634;50.852;5.676;2023-11-21T20:05:53;13.68;;;11.77;;
24467;SDS011;12634;50.852;5.676;2023-11-21T20:08:20;14.23;;;11.20;;
24467;SDS011;12634;50.852;5.676;2023-11-21T20:10:47;14.60;;;12.15;;
24467;SDS011;12634;50.852;5.676;2023-11-21T20:13:14;13.73;;;11.70;;
24467;SDS011;12634;50.852;5.676;2023-11-21T20:15:43;14.60;;;12.63;;
24467;SDS011;12634;50.852;5.676;2023-11-21T20:18:11;14.30;;;12.00;;
24467;SDS011;12634;50.852;5.676;2023-11-21T20:20:38;14.13;;;12.63;;
24467;SDS011;12634;50.852;5.676;2023-11-21T20:23:05;12.50;;;11.10;;
24467;SDS011;12634;50.852;5.676;2023-11-21T20:25:32;13.75;;;9.73;;
24467;SDS011;12634;50.852;5.676;2023-11-21T20:28:00;13.23;;;9.98;;
24467;SDS011;12634;50.852;5.676;2023-11-21T20:30:27;13.82;;;10.30;;
24467;SDS011;12634;50.852;5.676;2023-11-21T20:32:58;12.50;;;10.23;;
24467;SDS011;12634;50.852;5.676;2023-11-21T20:35:28;14.63;;;11.35;;
24467;SDS011;12634;50.852;5.676;2023-11-21T20:37:55;12.40;;;10.90;;
24467;SDS011;12634;50.852;5.676;2023-11-21T20:40:22;12.57;;;10.32;;
24467;SDS011;12634;50.852;5.676;2023-11-21T20:42:50;15.63;;;11.20;;
24467;SDS011;12634;50.852;5.676;2023-11-21T20:45:17;13.25;;;10.13;;
24467;SDS011;12634;50.852;5.676;2023-11-21T20:47:48;14.32;;;11.48;;
24467;SDS011;12634;50.852;5.676;2023-11-21T20:50:17;12.02;;;9.20;;
24467;SDS011;12634;50.852;5.676;2023-11-21T20:52:47;13.93;;;9.77;;
24467;SDS011;12634;50.852;5.676;2023-11-21T20:55:15;11.77;;;9.27;;
24467;SDS011;12634;50.852;5.676;2023-11-21T20:57:42;11.40;;;9.30;;
24467;SDS011;12634;50.852;5.676;2023-11-21T21:00:11;11.75;;;9.05;;
24467;SDS011;12634;50.852;5.676;2023-11-21T21:02:40;10.55;;;8.15;;
24467;SDS011;12634;50.852;5.676;2023-11-21T21:05:10;10.50;;;8.43;;
24467;SDS011;12634;50.852;5.676;2023-11-21T21:07:41;9.60;;;7.75;;
24467;SDS011;12634;50.852;5.676;2023-11-21T21:10:09;11.02;;;8.27;;
24467;SDS011;12634;50.852;5.676;2023-11-21T21:12:37;10.43;;;8.20;;
24467;SDS011;12634;50.852;5.676;2023-11-21T21:15:06;10.63;;;7.55;;
24467;SDS011;12634;50.852;5.676;2023-11-21T21:17:36;10.75;;;7.97;;
24467;SDS011;12634;50.852;5.676;2023-11-21T21:20:06;11.15;;;7.90;;
24467;SDS011;12634;50.852;5.676;2023-11-21T21:22:35;11.90;;;7.90;;
24467;SDS011;12634;50.852;5.676;2023-11-21T21:25:05;8.80;;;7.43;;
24467;SDS011;12634;50.852;5.676;2023-11-21T21:27:33;9.93;;;7.47;;
24467;SDS011;12634;50.852;5.676;2023-11-21T21:30:01;12.02;;;8.30;;
24467;SDS011;12634;50.852;5.676;2023-11-21T21:32:29;12.15;;;8.13;;
24467;SDS011;12634;50.852;5.676;2023-11-21T21:34:57;12.32;;;9.02;;
24467;SDS011;12634;50.852;5.676;2023-11-21T21:37:24;11.15;;;8.48;;
24467;SDS011;12634;50.852;5.676;2023-11-21T21:39:51;10.48;;;8.35;;
24467;SDS011;12634;50.852;5.676;2023-11-21T21:42:21;13.80;;;10.23;;
24467;SDS011;12634;50.852;5.676;2023-11-21T21:44:49;12.98;;;9.93;;
24467;SDS011;12634;50.852;5.676;2023-11-21T21:47:16;14.10;;;10.65;;
24467;SDS011;12634;50.852;5.676;2023-11-21T21:49:43;14.32;;;9.23;;
24467;SDS011;12634;50.852;5.676;2023-11-21T21:52:10;12.68;;;10.70;;
24467;SDS011;12634;50.852;5.676;2023-11-21T21:54:38;15.88;;;11.73;;
24467;SDS011;12634;50.852;5.676;2023-11-21T21:57:05;12.07;;;9.52;;
24467;SDS011;12634;50.852;5.676;2023-11-21T21:59:35;13.63;;;11.02;;
24467;SDS011;12634;50.852;5.676;2023-11-21T22:02:03;14.07;;;10.25;;
24467;SDS011;12634;50.852;5.676;2023-11-21T22:04:31;15.00;;;11.55;;
24467;SDS011;12634;50.852;5.676;2023-11-21T22:07:00;13.90;;;11.30;;
24467;SDS011;12634;50.852;5.676;2023-11-21T22:09:27;17.17;;;12.27;;
24467;SDS011;12634;50.852;5.676;2023-11-21T22:11:58;16.35;;;11.80;;
24467;SDS011;12634;50.852;5.676;2023-11-21T22:14:25;15.13;;;11.95;;
24467;SDS011;12634;50.852;5.676;2023-11-21T22:16:53;15.23;;;12.15;;
24467;SDS011;12634;50.852;5.676;2023-11-21T22:19:21;14.05;;;10.88;;
24467;SDS011;12634;50.852;5.676;2023-11-21T22:21:48;15.52;;;12.45;;
24467;SDS011;12634;50.852;5.676;2023-11-21T22:24:15;16.30;;;11.65;;
24467;SDS011;12634;50.852;5.676;2023-11-21T22:26:42;14.50;;;12.32;;
24467;SDS011;12634;50.852;5.676;2023-11-21T22:29:09;15.77;;;12.82;;
24467;SDS011;12634;50.852;5.676;2023-11-21T22:31:39;17.35;;;12.20;;
24467;SDS011;12634;50.852;5.676;2023-11-21T22:34:08;13.73;;;11.77;;
24467;SDS011;12634;50.852;5.676;2023-11-21T22:36:37;15.52;;;12.57;;
24467;SDS011;12634;50.852;5.676;2023-11-21T22:39:04;15.15;;;11.65;;
24467;SDS011;12634;50.852;5.676;2023-11-21T22:41:33;14.60;;;11.75;;
24467;SDS011;12634;50.852;5.676;2023-11-21T22:44:00;15.77;;;12.18;;
24467;SDS011;12634;50.852;5.676;2023-11-21T22:46:27;12.80;;;10.82;;
24467;SDS011;12634;50.852;5.676;2023-11-21T22:48:55;17.20;;;11.45;;
24467;SDS011;12634;50.852;5.676;2023-11-21T22:51:23;17.92;;;11.80;;
24467;SDS011;12634;50.852;5.676;2023-11-21T22:53:51;18.98;;;11.55;;
24467;SDS011;12634;50.852;5.676;2023-11-21T22:56:18;17.65;;;11.98;;
24467;SDS011;12634;50.852;5.676;2023-11-21T22:58:47;15.95;;;12.38;;
24467;SDS011;12634;50.852;5.676;2023-11-21T23:01:15;15.65;;;12.55;;
24467;SDS011;12634;50.852;5.676;2023-11-21T23:03:42;16.33;;;13.18;;
24467;SDS011;12634;50.852;5.676;2023-11-21T23:06:09;17.15;;;13.75;;
24467;SDS011;12634;50.852;5.676;2023-11-21T23:08:39;17.02;;;13.35;;
24467;SDS011;12634;50.852;5.676;2023-11-21T23:11:06;17.80;;;12.90;;
24467;SDS011;12634;50.852;5.676;2023-11-21T23:13:33;15.30;;;12.20;;
24467;SDS011;12634;50.852;5.676;2023-11-21T23:16:01;17.23;;;14.00;;
24467;SDS011;12634;50.852;5.676;2023-11-21T23:18:28;16.23;;;12.80;;
24467;SDS011;12634;50.852;5.676;2023-11-21T23:20:55;17.00;;;13.57;;
24467;SDS011;12634;50.852;5.676;2023-11-21T23:23:23;18.13;;;12.73;;
24467;SDS011;12634;50.852;5.676;2023-11-21T23:25:53;17.35;;;13.07;;
24467;SDS011;12634;50.852;5.676;2023-11-21T23:28:21;15.88;;;13.55;;
24467;SDS011;12634;50.852;5.676;2023-11-21T23:30:49;18.27;;;13.13;;
24467;SDS011;12634;50.852;5.676;2023-11-21T23:33:17;17.60;;;14.02;;
24467;SDS011;12634;50.852;5.676;2023-11-21T23:35:45;17.63;;;13.82;;
24467;SDS011;12634;50.852;5.676;2023-11-21T23:38:12;22.08;;;13.80;;
24467;SDS011;12634;50.852;5.676;2023-11-21T23:40:39;16.88;;;13.30;;
24467;SDS011;12634;50.852;5.676;2023-11-21T23:43:09;15.63;;;13.77;;
24467;SDS011;12634;50.852;5.676;2023-11-21T23:45:36;17.38;;;14.00;;
24467;SDS011;12634;50.852;5.676;2023-11-21T23:48:04;17.08;;;14.70;;
24467;SDS011;12634;50.852;5.676;2023-11-21T23:50:31;18.80;;;15.88;;
24467;SDS011;12634;50.852;5.676;2023-11-21T23:52:58;18.42;;;15.68;;
24467;SDS011;12634;50.852;5.676;2023-11-21T23:55:26;20.38;;;15.48;;
24467;SDS011;12634;50.852;5.676;2023-11-21T23:57:53;19.40;;;15.75;;
